Terminal Aerodrome Forecast
Issued by NWS Albany, NY

Home | Current Version | Previous Version | Text Only | Print | Product List | Glossary On
Versions: 1 2 3 4 5 6 7 8 9 10 11 12 13 14 15 16 17 18 19
000
FTUS41 KALY 291700
TAFGFL
TAF
KGFL 291728Z 2918/3018 16005KT P6SM SCT100 BKN200
     FM292100 18004KT P6SM BKN060 OVC080
     FM300300 18005KT 2SM -SN BR OVC020
     FM300600 19004KT 3/4SM -SN BR VV007
     FM301700 33008KT 3SM -SHSN OVC015=

USA.gov is the U.S. government's official web portal to all federal, state and local government web resources and services.